Alex Braga

Scout - Fluminense
5 Mär 2028
Sonntag
Verarbeitung

Persönlichkeit

Anpassungsfähigkeit (16) Ehrgeiz (14) Kontroverse (17) Loyalität (4) Druck (11) Professionalität (5) Fairness (7) Temperament (2)

Profil

Trainerstil Demokratisch
Lizenz Nationale B
Entschlossenheit 13
Menschenführung 7
Motivation 12
Disziplin 6
Arbeitszufriedenheit
100%
Ermüdung
0%
Rolle Scout
Gehalt 94.8K p/W
Vertrag 14.03.2028

Leistung

Verhalten Gut
Trainingseffektivität
51%
Spielerentwicklung
30%
Verletzungsprävention
75%
Taktische Umsetzung
50%

Letzte Ereignisse

Vertragsverhandlung begonnen jetzt
Nahm an einer Scouting-Besprechung teil jetzt
Nahm an einer Scouting-Besprechung teil jetzt
Nahm an einer Scouting-Besprechung teil jetzt
Vertragsverhandlung begonnen jetzt
Vertragsverhandlung begonnen jetzt
Vertragsverhandlung begonnen jetzt
Vertragsverhandlung begonnen 7T her

Aktuell beobachtet

163
Spieler Verein Status Fähigkeit Vertrauen Beobachtet Zuletzt beobachtet Letzte Stimme
Pedro de la Vega Columbus Crew Aktiv 143 / 137 40% 1 28.12.2027 -
Talles Magno New York City Aktiv 144 / 131 40% 1 28.12.2027 -
Renan Lodi Atlético Mineiro Verloren 131 / 139 40% 1 21.12.2027 -
Paulo Henrique Vasco da Gama Aktiv 123 / 130 40% 1 21.12.2027 -
Allan Saint-Maximin Charlotte Football Club Verloren 137 / 138 40% 2 14.12.2027 -
Renan Lodi Atlético Mineiro Verloren 152 / 136 40% 2 14.12.2027 -
Luka Andrade Montevideo City Torque Aktiv 104 / 111 40% 5 29.11.2027 -
Alex Verón Vélez Aktiv 106 / 125 40% 4 29.11.2027 -
Gonçalo Moreira Benfica Aktiv 116 / 127 40% 6 28.11.2027 -
Martim Cunha Porto Aktiv 101 / 110 40% 1 28.11.2027 -
Jeremías Merlo Gimnasia La Plata Aktiv 114 / 123 40% 6 27.11.2027 -
Maren Kefas Plateau United Aktiv 100 / 99 40% 6 27.11.2027 -
Flávio Gonçalves Sporting CP Aktiv 125 / 127 40% 3 26.11.2027 -
Bautista Carboni Defensores Unidos Aktiv 106 / 112 40% 6 26.11.2027 -
Matías Arias Vélez Aktiv 106 / 123 40% 2 23.11.2027 -
Nicolás Barros Schelotto Gimnasia La Plata Aktiv 120 / 124 40% 4 20.11.2027 -
Mustapha Umar Kano Pillars Aktiv 97 / 91 40% 1 20.11.2027 -
Gianluca Prestianni Benfica Aktiv 128 / 148 40% 7 18.11.2027 -
Valentino Acuña Newell's Old Boys Aktiv 102 / 117 40% 4 16.11.2027 -
Victor Hernandez Santa Fe Aktiv 115 / 122 40% 8 13.11.2027 -
Rafael Moreno Atletico Venezuela Aktiv 112 / 113 40% 6 13.11.2027 -
Ruben Ramos LA Galaxy Aktiv 104 / 110 40% 5 12.11.2027 -
Mateo Silvetti Seattle Sounders Aktiv 130 / 130 40% 3 11.11.2027 -
Olívio Tomé Benfica Aktiv 109 / 122 40% 2 10.11.2027 -
Kauã Elias Shakhtar Aktiv 137 / 140 40% 1 09.11.2027 -
André Miranda Porto Aktiv 121 / 119 40% 5 08.11.2027 -
Francisco Triver River Plate Aktiv 91 / 99 40% 2 06.11.2027 -
Kaique Kenji Fortaleza Aktiv 107 / 124 40% 6 05.11.2027 -
Dylan Cabral Arsenal Aktiv 107 / 104 40% 2 05.11.2027 -
Joel Ezra Enyimba Aktiv 103 / 98 40% 4 04.11.2027 -
Mateo Peralta Danubio Aktiv 105 / 117 40% 6 02.11.2027 -
Giovanni Baroni Talleres Aktiv 104 / 121 40% 2 01.11.2027 -
Vinícius Lira São Paulo Aktiv 128 / 127 40% 3 31.10.2027 -
Ben Gannon Doak Charlton Athletic Aktiv 144 / 148 40% 5 29.10.2027 -
Tiago Pucciarelli IF Elfsborg Aktiv 109 / 107 40% 2 28.10.2027 -
Toni Tamarit Alverca Aktiv 119 / 125 40% 1 25.10.2027 -
Agustín De la Cuesta Racing Aktiv 103 / 119 40% 6 20.10.2027 -
Abubakar Garba Nasarawa United Aktiv 93 / 96 40% 6 13.10.2027 -
Joel Orlando Almagro Aktiv 106 / 121 40% 4 07.10.2027 -
Didier Dawson Envigado Aktiv 104 / 111 40% 1 01.10.2027 -
Sebastián Ramírez Aguilas Doradas Aktiv 99 / 109 40% 1 28.09.2027 -
Peter Amidu Acquah Asante Kotoko Aktiv 94 / 101 40% 1 31.08.2027 -
Nana Nuhu WAFA Aktiv 90 / 103 40% 1 29.08.2027 -
Araphat Mohammed Ashanti Gold Aktiv 114 / 109 40% 2 27.08.2027 -
Serge Daura PWD Bamenda Aktiv 87 / 105 40% 1 21.08.2027 -
Sindre Walle Egeli Udinese Aktiv 142 / 137 40% 4 20.08.2027 -
Alphadjo Cissé Lecce Aktiv 130 / 135 40% 1 19.08.2027 -
Germán Barbas Burgos Aktiv 103 / 117 40% 1 14.08.2027 -
Jesús Rodríguez Como Aktiv 150 / 154 40% 4 12.08.2027 -
Sascha Britschgi AC Milan Aktiv 136 / 131 40% 1 10.08.2027 -
Calum Agius Crewe Alexandra Aktiv 92 / 105 40% 2 09.08.2027 -
Landerson Moreirense Aktiv 98 / 113 40% 4 08.08.2027 -
Assane Diao Como Aktiv 142 / 154 40% 2 08.08.2027 -
Romelle Donovan Brentford Aktiv 131 / 134 40% 3 07.08.2027 -
Stevan Manuel Benfica Aktiv 90 / 111 40% 2 07.08.2027 -
Oscar Schwartau Norwich City Aktiv 119 / 126 40% 2 06.08.2027 -
Othmane Maamma Watford Aktiv 141 / 131 40% 2 06.08.2027 -
Ollie Scarles West Ham United Aktiv 135 / 134 40% 2 02.08.2027 -
Eduardo Fernandes Benfica Aktiv 125 / 120 40% 4 28.07.2027 -
Jan Bürger Northampton Town Aktiv 121 / 118 40% 2 28.07.2027 -
Rafael Camacho Sporting CP Aktiv 85 / 110 40% 2 27.07.2027 -
Tiago Freitas Benfica Aktiv 121 / 119 40% 2 24.07.2027 -
João Abreu Porto Aktiv 102 / 111 40% 2 22.07.2027 -
Matthew Targett Hull City Aktiv 131 / 131 40% 1 20.07.2027 -
Adam Randell Bristol City Aktiv 146 / 135 40% 1 20.07.2027 -
Eliton Junior Ceará Aktiv 98 / 110 58% 1 19.07.2027 Befürworten
Salvador Blopá Sporting CP Aktiv 105 / 125 40% 2 17.07.2027 -
Sorba Thomas Stoke City Aktiv 131 / 134 40% 1 13.07.2027 -
Isaiah Jones Luton Town Aktiv 126 / 124 40% 1 13.07.2027 -
Caleb Yirenkyi Coventry City Aktiv 136 / 140 40% 1 08.07.2027 -
Andrés Gómez Vasco da Gama Aktiv 132 / 140 58% 1 05.07.2027 Befürworten
Riley Owen Stevenage Aktiv 103 / 112 40% 1 05.07.2027 -
Víctor Guzmán Sporting CP Aktiv 97 / 99 40% 1 05.07.2027 -
Leo Castledine Middlesbrough Aktiv 129 / 127 40% 1 03.07.2027 -
Lander Astiazarán Real Sociedad Aktiv 98 / 112 40% 1 02.07.2027 -
Bernardo Lima Porto Aktiv 95 / 106 40% 1 05.06.2027 -
Ilyas Ansah Hull City Aktiv 119 / 131 40% 1 01.06.2027 -
Jørgen Strand Larsen Brighton Aktiv 158 / 138 40% 1 01.06.2027 -
Zian Flemming Ipswich Town Aktiv 139 / 131 40% 1 31.05.2027 -
Georginio Rutter Brighton Aktiv 149 / 154 40% 1 31.05.2027 -
Anthony Patterson Wrexham Aktiv 140 / 126 40% 2 14.12.2026 -
Grégoire Coudert Burnley Aktiv 138 / 126 40% 1 14.12.2026 -
Odsonne Édouard Olympique Lyonnais Aktiv 132 / 129 40% 1 30.11.2026 -
Jan Bednarek Porto Aktiv 152 / 144 40% 4 29.11.2026 -
Dani Ceballos RC Lens Aktiv 130 / 140 40% 1 27.11.2026 -
Gérson Cruzeiro Aktiv 148 / 142 40% 1 24.11.2026 -
Dara O'Shea Ipswich Town Aktiv 151 / 132 40% 1 23.11.2026 -
Erik Lira Cruz Azul Aktiv 124 / 133 40% 1 22.11.2026 -
Dean Henderson Crystal Palace Aktiv 131 / 147 40% 2 21.11.2026 -
Carlos Miguel Palmeiras Aktiv 122 / 132 40% 1 21.11.2026 -
Enzo Barrenechea Benfica Aktiv 136 / 151 40% 1 19.11.2026 -
Zion Suzuki Aston Villa Aktiv 142 / 146 40% 6 17.11.2026 -
Mike Maignan AC Milan Aktiv 165 / 164 40% 3 17.11.2026 -
Nuno Santos Sporting CP Aktiv 132 / 142 40% 5 16.11.2026 -
Tyrhys Dolan Espanyol Aktiv 145 / 132 40% 1 16.11.2026 -
Luciano Juba Bahia Aktiv 139 / 131 40% 1 16.11.2026 -
Tomás Araújo Benfica Aktiv 157 / 141 40% 3 14.11.2026 Beobachten
Max Bird Birmingham Aktiv 139 / 134 40% 1 13.11.2026 -
Pablo Rosario Porto Aktiv 126 / 135 40% 2 11.11.2026 -
Fredrik Aursnes Benfica Aktiv 159 / 142 40% 3 11.11.2026 Beobachten
Pedrinho Shakhtar Aktiv 150 / 133 40% 1 10.11.2026 -
Gabriel Brazão Santos Aktiv 126 / 134 40% 4 09.11.2026 -
Eduardo Quaresma Sporting CP Aktiv 140 / 147 40% 2 09.11.2026 -
Robin Roefs Sunderland Aktiv 144 / 138 40% 3 07.11.2026 -
Alexander Nübel Besiktas Aktiv 138 / 148 40% 3 07.11.2026 -
Radek Vítek Middlesbrough Aktiv 125 / 132 40% 3 06.11.2026 -
Joseph Leclercq Tottenham Aktiv 165 / 144 40% 1 03.11.2026 -
Hidemasa Morita Hull City Aktiv 125 / 142 40% 1 02.11.2026 -
Jacob Greaves Ipswich Town Aktiv 144 / 140 40% 1 01.11.2026 -
Juan Ignacio Nardoni Grêmio Aktiv 125 / 127 40% 1 31.10.2026 -
Zeno Debast Sporting CP Aktiv 158 / 142 40% 2 29.10.2026 -
Kenny Tete Fulham Aktiv 152 / 147 40% 1 29.10.2026 -
Mads Hermansen West Ham United Aktiv 133 / 137 40% 2 28.10.2026 -
Leon Goretzka Aston Villa Aktiv 167 / 159 40% 1 26.10.2026 -
Danilo Botafogo Aktiv 138 / 135 40% 1 26.10.2026 -
Arijanet Murić Sassuolo Aktiv 141 / 135 40% 1 25.10.2026 -
Léo Jardim Vasco da Gama Aktiv 123 / 139 40% 1 24.10.2026 -
Iván Fresneda Sporting CP Aktiv 123 / 137 40% 3 22.10.2026 -
Hwang In-Beom Porto Aktiv 132 / 137 40% 3 22.10.2026 -
Carlos Acevedo Santos Laguna Aktiv 138 / 132 40% 2 21.10.2026 -
Bright Arrey-Mbi Braga Aktiv 129 / 128 40% 2 19.10.2026 -
Fabrício Bruno Cruzeiro Aktiv 144 / 137 40% 1 13.10.2026 -
Matheus Pereira Cruzeiro Aktiv 150 / 140 40% 1 11.10.2026 -
Ryan Gauld Vancouver Whitecaps Aktiv 132 / 137 40% 2 07.10.2026 -
William Gomes Porto Aktiv 128 / 143 40% 2 06.10.2026 -
Vitinho Botafogo Aktiv 127 / 136 40% 1 05.10.2026 -
Agustín Palavecino Cruz Azul Aktiv 134 / 136 40% 1 05.10.2026 -
Lewis Cook Bournemouth Aktiv 158 / 147 40% 1 03.10.2026 -
Luis Sinisterra Cruzeiro Aktiv 140 / 136 40% 1 30.09.2026 -
Daniel Muñoz Nottingham Forest Aktiv 136 / 152 40% 1 30.09.2026 -
João Palhinha Benfica Aktiv 151 / 145 40% 4 28.09.2026 -
Alex Meret Napoli Aktiv 163 / 144 40% 1 25.09.2026 -
Álex Berenguer Lokomotiv Moscow Aktiv 134 / 144 40% 1 24.09.2026 -
Caio Alexandre Bahia Aktiv 127 / 135 40% 1 24.09.2026 -
Victor Froholdt Porto Aktiv 140 / 154 40% 2 21.09.2026 -
Sikou Niakaté Braga Aktiv 125 / 139 40% 1 21.09.2026 -
Leandro Barreiro Benfica Aktiv 125 / 141 40% 1 19.09.2026 -
Jean-Baptiste Gorby Braga Aktiv 116 / 132 40% 1 19.09.2026 -
Andreas Pereira Palmeiras Aktiv 136 / 137 40% 1 18.09.2026 -
Francisco Moura Porto Aktiv 118 / 141 40% 2 13.09.2026 -
Alberto Costa Porto Aktiv 142 / 148 40% 2 12.09.2026 -
Samuel Dahl Benfica Aktiv 124 / 138 40% 1 12.09.2026 -
Nico González Newcastle United Aktiv 169 / 165 40% 1 10.09.2026 -
Raúl Rangel Braga Aktiv 136 / 128 40% 1 05.09.2026 -
Alex Palmer Ipswich Town Aktiv 115 / 130 40% 1 05.09.2026 -
James Trafford Leeds United Aktiv 121 / 146 40% 2 04.09.2026 -
Lazar Carević Famalicao Aktiv 121 / 130 40% 1 03.09.2026 -
Facundo Cambeses Stade Brestois Aktiv 127 / 125 40% 1 03.09.2026 -
Joaquín Piquerez Palmeiras Aktiv 144 / 131 40% 2 30.08.2026 -
Viktor Johansson Stoke City Aktiv 145 / 135 40% 2 28.08.2026 -
Franco Petroli Lanús Aktiv 138 / 125 40% 1 26.08.2026 -
Kepa Arrizabalaga Arsenal Aktiv 162 / 139 40% 2 21.08.2026 -
Carlos Moreno Pachuca Aktiv 118 / 129 40% 1 20.08.2026 -
Sergi Altimira Sporting CP Aktiv 129 / 137 40% 1 16.08.2026 -
Cristian Uribe Monaco Aktiv 168 / 153 40% 1 11.08.2026 -
Roberto Fernández Braga Aktiv 126 / 144 40% 1 11.08.2026 -
Pepê Porto Aktiv 143 / 145 40% 1 10.08.2026 -
Jhon Arias Palmeiras Aktiv 143 / 134 40% 1 10.08.2026 -
Nehuén Pérez Porto Aktiv 152 / 133 40% 1 07.08.2026 -
Vitor Carvalho Braga Aktiv 150 / 127 40% 1 07.08.2026 -
Hugo Souza Corinthians Aktiv 126 / 134 40% 1 06.08.2026 -
Dodi Lukébakio Benfica Aktiv 133 / 143 40% 1 04.08.2026 -
Mikel Oyarzábal Real Sociedad Aktiv 155 / 151 40% 1 04.08.2026 -